sensor_id;sensor_type;location;lat;lon;timestamp;pressure;altitude;pressure_sealevel;temperature;humidity
58471;BME280;44258;51.288;12.068;2024-03-17T00:00:22;101235.53;;;8.45;54.80
58471;BME280;44258;51.288;12.068;2024-03-17T00:02:49;101243.47;;;8.48;54.61
58471;BME280;44258;51.288;12.068;2024-03-17T00:05:17;101242.59;;;8.48;54.73
58471;BME280;44258;51.288;12.068;2024-03-17T00:07:47;101248.00;;;8.46;54.70
58471;BME280;44258;51.288;12.068;2024-03-17T00:10:14;101241.84;;;8.43;54.72
58471;BME280;44258;51.288;12.068;2024-03-17T00:12:42;101242.84;;;8.40;54.82
58471;BME280;44258;51.288;12.068;2024-03-17T00:15:09;101239.34;;;8.38;54.63
58471;BME280;44258;51.288;12.068;2024-03-17T00:17:37;101246.50;;;8.38;54.62
58471;BME280;44258;51.288;12.068;2024-03-17T00:20:02;101247.06;;;8.21;54.53
58471;BME280;44258;51.288;12.068;2024-03-17T00:22:34;101242.41;;;8.26;54.32
58471;BME280;44258;51.288;12.068;2024-03-17T00:25:05;101240.13;;;8.13;54.76
58471;BME280;44258;51.288;12.068;2024-03-17T00:27:32;101250.25;;;8.04;54.52
58471;BME280;44258;51.288;12.068;2024-03-17T00:30:00;101238.06;;;7.93;54.92
58471;BME280;44258;51.288;12.068;2024-03-17T00:32:28;101245.06;;;7.98;54.99
58471;BME280;44258;51.288;12.068;2024-03-17T00:34:55;101251.41;;;7.95;54.95
58471;BME280;44258;51.288;12.068;2024-03-17T00:37:22;101252.38;;;7.92;55.27
58471;BME280;44258;51.288;12.068;2024-03-17T00:39:49;101256.66;;;7.98;55.24
58471;BME280;44258;51.288;12.068;2024-03-17T00:42:17;101250.53;;;7.94;55.28
58471;BME280;44258;51.288;12.068;2024-03-17T00:44:44;101247.97;;;7.90;55.22
58471;BME280;44258;51.288;12.068;2024-03-17T00:47:10;101254.22;;;7.90;55.45
58471;BME280;44258;51.288;12.068;2024-03-17T00:49:36;101252.66;;;7.83;55.20
58471;BME280;44258;51.288;12.068;2024-03-17T00:52:03;101254.09;;;7.95;54.87
58471;BME280;44258;51.288;12.068;2024-03-17T00:54:30;101254.03;;;7.97;54.73
58471;BME280;44258;51.288;12.068;2024-03-17T00:56:58;101256.81;;;7.93;54.87
58471;BME280;44258;51.288;12.068;2024-03-17T00:59:29;101250.09;;;7.79;55.03
58471;BME280;44258;51.288;12.068;2024-03-17T01:01:56;101246.63;;;7.75;54.96
58471;BME280;44258;51.288;12.068;2024-03-17T01:04:22;101255.97;;;7.60;55.24
58471;BME280;44258;51.288;12.068;2024-03-17T01:06:48;101251.31;;;7.67;54.97
58471;BME280;44258;51.288;12.068;2024-03-17T01:09:14;101254.28;;;7.58;55.20
58471;BME280;44258;51.288;12.068;2024-03-17T01:11:41;101256.03;;;7.59;55.29
58471;BME280;44258;51.288;12.068;2024-03-17T01:14:07;101255.47;;;7.47;55.35
58471;BME280;44258;51.288;12.068;2024-03-17T01:16:35;101253.53;;;7.52;55.08
58471;BME280;44258;51.288;12.068;2024-03-17T01:19:01;101256.13;;;7.56;55.45
58471;BME280;44258;51.288;12.068;2024-03-17T01:21:28;101253.53;;;7.52;55.29
58471;BME280;44258;51.288;12.068;2024-03-17T01:23:54;101260.03;;;7.44;55.54
58471;BME280;44258;51.288;12.068;2024-03-17T01:26:21;101259.03;;;7.46;55.61
58471;BME280;44258;51.288;12.068;2024-03-17T01:28:47;101257.16;;;7.50;55.50
58471;BME280;44258;51.288;12.068;2024-03-17T01:31:14;101259.88;;;7.48;55.43
58471;BME280;44258;51.288;12.068;2024-03-17T01:33:41;101263.91;;;7.32;56.16
58471;BME280;44258;51.288;12.068;2024-03-17T01:36:08;101270.09;;;7.34;56.16
58471;BME280;44258;51.288;12.068;2024-03-17T01:38:35;101259.31;;;7.37;56.10
58471;BME280;44258;51.288;12.068;2024-03-17T01:41:01;101257.72;;;7.30;55.92
58471;BME280;44258;51.288;12.068;2024-03-17T01:43:28;101252.19;;;7.36;55.65
58471;BME280;44258;51.288;12.068;2024-03-17T01:45:53;101252.56;;;7.22;55.97
58471;BME280;44258;51.288;12.068;2024-03-17T01:48:21;101247.06;;;7.28;55.88
58471;BME280;44258;51.288;12.068;2024-03-17T01:50:49;101248.84;;;7.29;55.93
58471;BME280;44258;51.288;12.068;2024-03-17T01:53:18;101246.19;;;7.28;56.00
58471;BME280;44258;51.288;12.068;2024-03-17T01:55:46;101247.94;;;7.29;56.03
58471;BME280;44258;51.288;12.068;2024-03-17T01:58:13;101251.53;;;7.28;55.95
58471;BME280;44258;51.288;12.068;2024-03-17T02:00:40;101250.53;;;7.32;55.70
58471;BME280;44258;51.288;12.068;2024-03-17T02:03:08;101248.00;;;7.27;55.73
58471;BME280;44258;51.288;12.068;2024-03-17T02:05:35;101247.34;;;7.19;55.98
58471;BME280;44258;51.288;12.068;2024-03-17T02:08:06;101245.66;;;7.15;56.23
58471;BME280;44258;51.288;12.068;2024-03-17T02:10:33;101252.75;;;7.16;56.22
58471;BME280;44258;51.288;12.068;2024-03-17T02:13:01;101248.25;;;7.17;56.19
58471;BME280;44258;51.288;12.068;2024-03-17T02:15:28;101253.13;;;7.02;56.22
58471;BME280;44258;51.288;12.068;2024-03-17T02:17:55;101259.59;;;6.93;56.67
58471;BME280;44258;51.288;12.068;2024-03-17T02:20:21;101244.81;;;6.80;56.66
58471;BME280;44258;51.288;12.068;2024-03-17T02:23:10;101256.25;;;6.85;56.22
58471;BME280;44258;51.288;12.068;2024-03-17T02:25:36;101246.41;;;6.86;56.37
58471;BME280;44258;51.288;12.068;2024-03-17T02:28:05;101254.34;;;6.90;56.39
58471;BME280;44258;51.288;12.068;2024-03-17T02:30:30;101249.22;;;6.81;56.26
58471;BME280;44258;51.288;12.068;2024-03-17T02:32:57;101241.03;;;6.87;55.82
58471;BME280;44258;51.288;12.068;2024-03-17T02:35:23;101247.50;;;6.79;56.14
58471;BME280;44258;51.288;12.068;2024-03-17T02:37:52;101241.16;;;6.83;56.05
58471;BME280;44258;51.288;12.068;2024-03-17T02:40:19;101234.13;;;6.79;56.56
58471;BME280;44258;51.288;12.068;2024-03-17T02:42:46;101249.22;;;6.81;56.35
58471;BME280;44258;51.288;12.068;2024-03-17T02:45:11;101242.28;;;6.74;56.74
58471;BME280;44258;51.288;12.068;2024-03-17T02:47:39;101242.84;;;6.87;56.70
58471;BME280;44258;51.288;12.068;2024-03-17T02:50:08;101241.88;;;6.89;56.39
58471;BME280;44258;51.288;12.068;2024-03-17T02:52:37;101245.25;;;6.96;56.04
58471;BME280;44258;51.288;12.068;2024-03-17T02:55:05;101247.91;;;6.98;56.25
58471;BME280;44258;51.288;12.068;2024-03-17T02:57:34;101245.31;;;6.94;56.00
58471;BME280;44258;51.288;12.068;2024-03-17T03:00:00;101232.94;;;6.90;56.26
58471;BME280;44258;51.288;12.068;2024-03-17T03:02:31;101237.53;;;6.85;56.54
58471;BME280;44258;51.288;12.068;2024-03-17T03:05:01;101236.69;;;6.83;56.35
58471;BME280;44258;51.288;12.068;2024-03-17T03:07:28;101234.94;;;6.82;56.32
58471;BME280;44258;51.288;12.068;2024-03-17T03:09:55;101234.03;;;6.82;56.61
58471;BME280;44258;51.288;12.068;2024-03-17T03:12:21;101237.78;;;6.76;56.57
58471;BME280;44258;51.288;12.068;2024-03-17T03:14:49;101240.44;;;6.76;56.29
58471;BME280;44258;51.288;12.068;2024-03-17T03:17:17;101237.94;;;6.70;56.53
58471;BME280;44258;51.288;12.068;2024-03-17T03:19:43;101234.47;;;6.66;56.71
58471;BME280;44258;51.288;12.068;2024-03-17T03:22:10;101240.16;;;6.51;57.44
58471;BME280;44258;51.288;12.068;2024-03-17T03:24:37;101236.94;;;6.38;57.87
58471;BME280;44258;51.288;12.068;2024-03-17T03:27:04;101237.13;;;6.30;58.10
58471;BME280;44258;51.288;12.068;2024-03-17T03:29:31;101246.53;;;6.08;58.83
58471;BME280;44258;51.288;12.068;2024-03-17T03:32:00;101243.31;;;5.93;59.24
58471;BME280;44258;51.288;12.068;2024-03-17T03:34:27;101239.66;;;5.98;59.47
58471;BME280;44258;51.288;12.068;2024-03-17T03:36:54;101245.56;;;6.12;59.07
58471;BME280;44258;51.288;12.068;2024-03-17T03:39:21;101253.38;;;6.21;58.76
58471;BME280;44258;51.288;12.068;2024-03-17T03:41:48;101246.13;;;6.25;58.48
58471;BME280;44258;51.288;12.068;2024-03-17T03:44:16;101234.41;;;6.32;58.24
58471;BME280;44258;51.288;12.068;2024-03-17T03:46:44;101243.13;;;6.40;58.08
58471;BME280;44258;51.288;12.068;2024-03-17T03:49:13;101240.97;;;6.54;57.77
58471;BME280;44258;51.288;12.068;2024-03-17T03:51:41;101245.31;;;6.60;57.04
58471;BME280;44258;51.288;12.068;2024-03-17T03:54:08;101245.50;;;6.52;57.39
58471;BME280;44258;51.288;12.068;2024-03-17T03:56:35;101247.63;;;6.38;57.66
58471;BME280;44258;51.288;12.068;2024-03-17T03:59:01;101246.09;;;6.26;58.11
58471;BME280;44258;51.288;12.068;2024-03-17T04:01:28;101247.03;;;6.25;58.18
58471;BME280;44258;51.288;12.068;2024-03-17T04:03:55;101245.09;;;6.32;58.15
58471;BME280;44258;51.288;12.068;2024-03-17T04:06:23;101250.34;;;6.35;57.79
58471;BME280;44258;51.288;12.068;2024-03-17T04:08:50;101249.25;;;6.06;58.87
58471;BME280;44258;51.288;12.068;2024-03-17T04:11:17;101246.72;;;5.99;59.04
58471;BME280;44258;51.288;12.068;2024-03-17T04:13:43;101247.69;;;5.96;58.89
58471;BME280;44258;51.288;12.068;2024-03-17T04:16:10;101245.84;;;6.00;58.94
58471;BME280;44258;51.288;12.068;2024-03-17T04:18:40;101254.81;;;5.96;59.60
58471;BME280;44258;51.288;12.068;2024-03-17T04:21:07;101249.59;;;5.89;59.73
58471;BME280;44258;51.288;12.068;2024-03-17T04:23:36;101257.66;;;5.86;60.15
58471;BME280;44258;51.288;12.068;2024-03-17T04:26:04;101255.69;;;5.96;59.68
58471;BME280;44258;51.288;12.068;2024-03-17T04:28:34;101244.81;;;6.07;59.13
58471;BME280;44258;51.288;12.068;2024-03-17T04:31:05;101252.66;;;6.13;58.98
58471;BME280;44258;51.288;12.068;2024-03-17T04:33:33;101257.06;;;6.14;58.81
58471;BME280;44258;51.288;12.068;2024-03-17T04:36:00;101256.13;;;6.17;58.53
58471;BME280;44258;51.288;12.068;2024-03-17T04:38:30;101258.75;;;6.18;58.73
58471;BME280;44258;51.288;12.068;2024-03-17T04:41:01;101258.91;;;6.12;58.81
58471;BME280;44258;51.288;12.068;2024-03-17T04:43:33;101248.19;;;6.13;58.56
58471;BME280;44258;51.288;12.068;2024-03-17T04:46:04;101255.53;;;6.04;58.66
58471;BME280;44258;51.288;12.068;2024-03-17T04:48:37;101258.47;;;5.90;59.52
58471;BME280;44258;51.288;12.068;2024-03-17T04:51:05;101259.47;;;5.84;59.79
58471;BME280;44258;51.288;12.068;2024-03-17T04:53:32;101261.25;;;5.85;59.54
58471;BME280;44258;51.288;12.068;2024-03-17T04:56:01;101259.47;;;5.84;59.50
58471;BME280;44258;51.288;12.068;2024-03-17T04:58:30;101256.66;;;5.93;59.41
58471;BME280;44258;51.288;12.068;2024-03-17T05:00:57;101266.25;;;6.01;59.32
58471;BME280;44258;51.288;12.068;2024-03-17T05:03:24;101269.00;;;5.99;59.13
58471;BME280;44258;51.288;12.068;2024-03-17T05:05:58;101273.56;;;5.92;59.21
58471;BME280;44258;51.288;12.068;2024-03-17T05:08:27;101270.06;;;5.89;59.24
58471;BME280;44258;51.288;12.068;2024-03-17T05:10:56;101267.47;;;5.86;59.54
58471;BME280;44258;51.288;12.068;2024-03-17T05:13:24;101265.63;;;5.91;59.34
58471;BME280;44258;51.288;12.068;2024-03-17T05:15:51;101272.78;;;5.86;59.69
58471;BME280;44258;51.288;12.068;2024-03-17T05:18:19;101272.22;;;5.70;59.68
58471;BME280;44258;51.288;12.068;2024-03-17T05:20:48;101274.38;;;5.52;60.75
58471;BME280;44258;51.288;12.068;2024-03-17T05:23:22;101271.59;;;5.59;60.47
58471;BME280;44258;51.288;12.068;2024-03-17T05:25:51;101275.97;;;5.61;60.47
58471;BME280;44258;51.288;12.068;2024-03-17T05:28:17;101273.34;;;5.60;60.76
58471;BME280;44258;51.288;12.068;2024-03-17T05:30:46;101278.03;;;5.47;60.89
58471;BME280;44258;51.288;12.068;2024-03-17T05:33:16;101288.00;;;5.39;61.26
58471;BME280;44258;51.288;12.068;2024-03-17T05:35:48;101296.19;;;5.28;61.70
58471;BME280;44258;51.288;12.068;2024-03-17T05:38:15;101291.84;;;5.24;61.68
58471;BME280;44258;51.288;12.068;2024-03-17T05:40:52;101298.03;;;5.24;61.25
58471;BME280;44258;51.288;12.068;2024-03-17T05:43:19;101293.44;;;5.32;61.14
58471;BME280;44258;51.288;12.068;2024-03-17T05:45:48;101301.56;;;5.25;61.43
58471;BME280;44258;51.288;12.068;2024-03-17T05:48:15;101302.53;;;5.21;62.28
58471;BME280;44258;51.288;12.068;2024-03-17T05:50:41;101311.38;;;5.23;61.66
58471;BME280;44258;51.288;12.068;2024-03-17T05:53:07;101310.38;;;5.30;62.11
58471;BME280;44258;51.288;12.068;2024-03-17T05:55:35;101311.72;;;5.52;61.21
58471;BME280;44258;51.288;12.068;2024-03-17T05:58:02;101320.25;;;5.70;60.50
58471;BME280;44258;51.288;12.068;2024-03-17T06:00:29;101317.44;;;5.78;60.09
58471;BME280;44258;51.288;12.068;2024-03-17T06:02:57;101324.28;;;5.92;59.64
58471;BME280;44258;51.288;12.068;2024-03-17T06:05:25;101328.44;;;6.07;59.36
58471;BME280;44258;51.288;12.068;2024-03-17T06:07:53;101322.81;;;6.21;59.27
58471;BME280;44258;51.288;12.068;2024-03-17T06:10:20;101327.88;;;6.33;58.72
58471;BME280;44258;51.288;12.068;2024-03-17T06:12:49;101328.63;;;6.39;58.36
58471;BME280;44258;51.288;12.068;2024-03-17T06:15:16;101333.28;;;6.30;59.06
58471;BME280;44258;51.288;12.068;2024-03-17T06:17:43;101328.53;;;6.43;58.93
58471;BME280;44258;51.288;12.068;2024-03-17T06:20:14;101340.69;;;6.57;58.51
58471;BME280;44258;51.288;12.068;2024-03-17T06:22:42;101338.50;;;6.74;58.60
58471;BME280;44258;51.288;12.068;2024-03-17T06:25:10;101338.13;;;6.89;58.37
58471;BME280;44258;51.288;12.068;2024-03-17T06:27:38;101343.97;;;7.05;58.22
58471;BME280;44258;51.288;12.068;2024-03-17T06:30:05;101343.81;;;7.11;58.03
58471;BME280;44258;51.288;12.068;2024-03-17T06:32:32;101342.81;;;7.16;57.74
58471;BME280;44258;51.288;12.068;2024-03-17T06:35:01;101349.75;;;7.23;57.75
58471;BME280;44258;51.288;12.068;2024-03-17T06:37:29;101348.75;;;7.27;57.89
58471;BME280;44258;51.288;12.068;2024-03-17T06:39:57;101335.38;;;7.27;57.38
58471;BME280;44258;51.288;12.068;2024-03-17T06:42:25;101341.50;;;7.32;57.35
58471;BME280;44258;51.288;12.068;2024-03-17T06:44:52;101339.59;;;7.37;57.65
58471;BME280;44258;51.288;12.068;2024-03-17T06:47:18;101344.78;;;7.43;57.85
58471;BME280;44258;51.288;12.068;2024-03-17T06:49:45;101347.97;;;7.58;57.75
58471;BME280;44258;51.288;12.068;2024-03-17T06:52:12;101341.38;;;7.69;57.29
58471;BME280;44258;51.288;12.068;2024-03-17T06:54:40;101346.38;;;7.83;57.43
58471;BME280;44258;51.288;12.068;2024-03-17T06:57:07;101343.16;;;8.02;57.06
58471;BME280;44258;51.288;12.068;2024-03-17T06:59:34;101342.75;;;8.16;57.23
58471;BME280;44258;51.288;12.068;2024-03-17T07:02:01;101349.38;;;8.33;56.86
58471;BME280;44258;51.288;12.068;2024-03-17T07:04:27;101344.44;;;8.48;56.78
58471;BME280;44258;51.288;12.068;2024-03-17T07:06:53;101345.50;;;8.42;56.57
58471;BME280;44258;51.288;12.068;2024-03-17T07:09:21;101343.13;;;8.61;56.36
58471;BME280;44258;51.288;12.068;2024-03-17T07:11:50;101341.00;;;8.72;55.89
58471;BME280;44258;51.288;12.068;2024-03-17T07:14:18;101345.88;;;8.88;55.73
58471;BME280;44258;51.288;12.068;2024-03-17T07:16:45;101352.78;;;8.95;55.74
58471;BME280;44258;51.288;12.068;2024-03-17T07:19:12;101356.28;;;8.97;55.54
58471;BME280;44258;51.288;12.068;2024-03-17T07:21:39;101351.56;;;9.04;55.80
58471;BME280;44258;51.288;12.068;2024-03-17T07:24:07;101353.81;;;9.18;55.56
58471;BME280;44258;51.288;12.068;2024-03-17T07:26:34;101349.22;;;9.21;55.04
58471;BME280;44258;51.288;12.068;2024-03-17T07:29:02;101350.22;;;9.19;54.97
58471;BME280;44258;51.288;12.068;2024-03-17T07:31:30;101346.53;;;9.21;54.87
58471;BME280;44258;51.288;12.068;2024-03-17T07:33:57;101342.97;;;9.21;54.73
58471;BME280;44258;51.288;12.068;2024-03-17T07:36:25;101355.50;;;9.20;54.91
58471;BME280;44258;51.288;12.068;2024-03-17T07:38:52;101356.03;;;9.31;55.48
58471;BME280;44258;51.288;12.068;2024-03-17T07:41:19;101350.91;;;9.50;55.73
58471;BME280;44258;51.288;12.068;2024-03-17T07:43:46;101349.50;;;9.65;54.82
58471;BME280;44258;51.288;12.068;2024-03-17T07:46:14;101355.41;;;9.75;54.62
58471;BME280;44258;51.288;12.068;2024-03-17T07:48:43;101358.81;;;9.80;54.90
58471;BME280;44258;51.288;12.068;2024-03-17T07:51:11;101361.09;;;9.91;54.75
58471;BME280;44258;51.288;12.068;2024-03-17T07:53:39;101368.28;;;9.90;54.58
58471;BME280;44258;51.288;12.068;2024-03-17T07:56:08;101364.41;;;9.74;54.95
58471;BME280;44258;51.288;12.068;2024-03-17T07:58:36;101352.63;;;9.78;55.18
58471;BME280;44258;51.288;12.068;2024-03-17T08:01:07;101357.41;;;9.93;55.11
58471;BME280;44258;51.288;12.068;2024-03-17T08:03:37;101351.53;;;10.07;54.91
58471;BME280;44258;51.288;12.068;2024-03-17T08:06:06;101361.22;;;10.11;54.76
58471;BME280;44258;51.288;12.068;2024-03-17T08:08:34;101354.66;;;9.95;55.73
58471;BME280;44258;51.288;12.068;2024-03-17T08:11:01;101354.25;;;9.82;56.48
58471;BME280;44258;51.288;12.068;2024-03-17T08:13:29;101347.19;;;10.03;56.12
58471;BME280;44258;51.288;12.068;2024-03-17T08:16:00;101352.19;;;10.14;55.30
58471;BME280;44258;51.288;12.068;2024-03-17T08:18:27;101358.00;;;10.25;55.37
58471;BME280;44258;51.288;12.068;2024-03-17T08:20:59;101349.41;;;10.39;54.89
58471;BME280;44258;51.288;12.068;2024-03-17T08:23:26;101348.69;;;10.58;54.88
58471;BME280;44258;51.288;12.068;2024-03-17T08:25:53;101345.25;;;10.54;54.63
58471;BME280;44258;51.288;12.068;2024-03-17T08:28:21;101329.59;;;10.87;54.88
58471;BME280;44258;51.288;12.068;2024-03-17T08:30:52;101322.22;;;11.13;54.31
58471;BME280;44258;51.288;12.068;2024-03-17T08:33:20;101331.97;;;11.15;53.53
58471;BME280;44258;51.288;12.068;2024-03-17T08:35:55;101335.28;;;10.80;55.15
58471;BME280;44258;51.288;12.068;2024-03-17T08:38:24;101326.81;;;11.31;54.64
58471;BME280;44258;51.288;12.068;2024-03-17T08:40:51;101325.56;;;11.61;53.62
58471;BME280;44258;51.288;12.068;2024-03-17T08:43:19;101325.34;;;11.45;53.71
58471;BME280;44258;51.288;12.068;2024-03-17T08:45:54;101324.47;;;11.65;54.09
58471;BME280;44258;51.288;12.068;2024-03-17T08:48:21;101326.53;;;11.17;53.53
58471;BME280;44258;51.288;12.068;2024-03-17T08:50:50;101319.03;;;11.03;54.53
58471;BME280;44258;51.288;12.068;2024-03-17T08:53:17;101316.03;;;11.11;53.14
58471;BME280;44258;51.288;12.068;2024-03-17T08:55:45;101315.25;;;11.29;53.30
58471;BME280;44258;51.288;12.068;2024-03-17T08:58:12;101314.91;;;11.58;53.10
58471;BME280;44258;51.288;12.068;2024-03-17T09:00:39;101313.84;;;11.81;52.86
58471;BME280;44258;51.288;12.068;2024-03-17T09:03:07;101317.22;;;12.06;52.16
58471;BME280;44258;51.288;12.068;2024-03-17T09:05:35;101316.19;;;12.09;51.16
58471;BME280;44258;51.288;12.068;2024-03-17T09:08:01;101310.81;;;12.28;50.80
58471;BME280;44258;51.288;12.068;2024-03-17T09:10:28;101306.13;;;12.31;50.80
58471;BME280;44258;51.288;12.068;2024-03-17T09:12:56;101310.38;;;12.37;50.33
58471;BME280;44258;51.288;12.068;2024-03-17T09:15:23;101315.53;;;12.42;49.89
58471;BME280;44258;51.288;12.068;2024-03-17T09:17:49;101308.72;;;12.52;49.98
58471;BME280;44258;51.288;12.068;2024-03-17T09:20:16;101315.91;;;12.53;51.11
58471;BME280;44258;51.288;12.068;2024-03-17T09:22:48;101314.38;;;12.66;50.19
58471;BME280;44258;51.288;12.068;2024-03-17T09:25:15;101305.16;;;12.70;49.22
58471;BME280;44258;51.288;12.068;2024-03-17T09:27:42;101300.69;;;12.69;49.54
58471;BME280;44258;51.288;12.068;2024-03-17T09:30:11;101313.16;;;12.72;49.73
58471;BME280;44258;51.288;12.068;2024-03-17T09:32:38;101315.41;;;12.81;49.11
58471;BME280;44258;51.288;12.068;2024-03-17T09:35:07;101316.47;;;12.96;49.04
58471;BME280;44258;51.288;12.068;2024-03-17T09:37:33;101300.13;;;12.99;48.08
58471;BME280;44258;51.288;12.068;2024-03-17T09:39:59;101308.53;;;13.10;48.17
58471;BME280;44258;51.288;12.068;2024-03-17T09:42:27;101301.09;;;13.15;48.42
58471;BME280;44258;51.288;12.068;2024-03-17T09:44:54;101297.91;;;13.07;48.39
58471;BME280;44258;51.288;12.068;2024-03-17T09:47:24;101291.69;;;12.88;47.97
58471;BME280;44258;51.288;12.068;2024-03-17T09:49:52;101292.03;;;12.99;48.65
58471;BME280;44258;51.288;12.068;2024-03-17T09:52:21;101295.81;;;13.31;48.28
58471;BME280;44258;51.288;12.068;2024-03-17T09:54:54;101291.69;;;13.58;47.13
58471;BME280;44258;51.288;12.068;2024-03-17T09:57:22;101288.19;;;13.73;46.15
58471;BME280;44258;51.288;12.068;2024-03-17T09:59:51;101292.28;;;13.80;45.86
58471;BME280;44258;51.288;12.068;2024-03-17T10:02:19;101291.50;;;13.78;45.65
58471;BME280;44258;51.288;12.068;2024-03-17T10:04:48;101287.31;;;13.72;45.74
58471;BME280;44258;51.288;12.068;2024-03-17T10:07:15;101290.56;;;13.79;45.21
58471;BME280;44258;51.288;12.068;2024-03-17T10:09:49;101284.28;;;13.79;43.79
58471;BME280;44258;51.288;12.068;2024-03-17T10:12:26;101286.94;;;13.63;43.74
58471;BME280;44258;51.288;12.068;2024-03-17T10:15:00;101284.50;;;13.23;44.76
58471;BME280;44258;51.288;12.068;2024-03-17T10:17:31;101287.06;;;13.26;45.63
58471;BME280;44258;51.288;12.068;2024-03-17T10:20:20;101277.44;;;12.67;45.45
58471;BME280;44258;51.288;12.068;2024-03-17T10:23:02;101282.16;;;12.98;45.10
58471;BME280;44258;51.288;12.068;2024-03-17T10:25:31;101274.75;;;12.84;44.91
58471;BME280;44258;51.288;12.068;2024-03-17T10:28:01;101281.69;;;12.72;45.25
58471;BME280;44258;51.288;12.068;2024-03-17T10:30:28;101280.41;;;13.14;45.43
58471;BME280;44258;51.288;12.068;2024-03-17T10:32:57;101282.44;;;13.28;44.84
58471;BME280;44258;51.288;12.068;2024-03-17T10:35:28;101274.41;;;13.09;43.87
58471;BME280;44258;51.288;12.068;2024-03-17T10:37:56;101280.00;;;13.24;45.04
58471;BME280;44258;51.288;12.068;2024-03-17T10:40:24;101272.94;;;13.02;45.52
58471;BME280;44258;51.288;12.068;2024-03-17T10:42:51;101276.03;;;12.94;46.07
58471;BME280;44258;51.288;12.068;2024-03-17T10:45:18;101272.88;;;12.50;45.12
58471;BME280;44258;51.288;12.068;2024-03-17T10:47:48;101277.47;;;12.48;46.41
58471;BME280;44258;51.288;12.068;2024-03-17T10:50:18;101268.66;;;12.81;46.58
58471;BME280;44258;51.288;12.068;2024-03-17T10:52:48;101276.91;;;13.31;45.65
58471;BME280;44258;51.288;12.068;2024-03-17T10:55:22;101273.38;;;13.47;44.31
58471;BME280;44258;51.288;12.068;2024-03-17T10:57:49;101272.38;;;13.65;43.66
58471;BME280;44258;51.288;12.068;2024-03-17T11:00:18;101269.06;;;13.76;43.66
58471;BME280;44258;51.288;12.068;2024-03-17T11:02:48;101267.16;;;13.78;42.73
58471;BME280;44258;51.288;12.068;2024-03-17T11:05:18;101268.22;;;13.75;42.51
58471;BME280;44258;51.288;12.068;2024-03-17T11:07:49;101263.47;;;13.63;41.84
58471;BME280;44258;51.288;12.068;2024-03-17T11:10:19;101266.81;;;13.68;42.60
58471;BME280;44258;51.288;12.068;2024-03-17T11:12:48;101262.16;;;13.54;43.33
58471;BME280;44258;51.288;12.068;2024-03-17T11:15:40;101262.19;;;13.70;43.28
58471;BME280;44258;51.288;12.068;2024-03-17T11:18:29;101248.38;;;13.92;41.46
58471;BME280;44258;51.288;12.068;2024-03-17T11:20:57;101253.06;;;13.22;42.02
58471;BME280;44258;51.288;12.068;2024-03-17T11:23:29;101256.16;;;13.65;43.35
58471;BME280;44258;51.288;12.068;2024-03-17T11:25:57;101256.88;;;13.69;41.68
58471;BME280;44258;51.288;12.068;2024-03-17T11:28:44;101254.50;;;13.29;42.51
58471;BME280;44258;51.288;12.068;2024-03-17T11:31:45;101253.41;;;13.49;42.29
58471;BME280;44258;51.288;12.068;2024-03-17T11:34:36;101248.56;;;13.72;42.44
58471;BME280;44258;51.288;12.068;2024-03-17T11:37:05;101245.31;;;13.83;41.31
58471;BME280;44258;51.288;12.068;2024-03-17T11:43:03;101233.38;;;13.53;42.89
58471;BME280;44258;51.288;12.068;2024-03-17T11:45:31;101232.34;;;13.56;42.75
58471;BME280;44258;51.288;12.068;2024-03-17T11:47:57;101233.66;;;13.14;42.99
58471;BME280;44258;51.288;12.068;2024-03-17T11:50:24;101240.09;;;13.29;43.27
58471;BME280;44258;51.288;12.068;2024-03-17T11:52:57;101240.56;;;13.37;42.79
58471;BME280;44258;51.288;12.068;2024-03-17T11:55:24;101246.06;;;13.36;42.65
58471;BME280;44258;51.288;12.068;2024-03-17T11:57:55;101242.84;;;13.10;43.29
58471;BME280;44258;51.288;12.068;2024-03-17T12:00:24;101248.03;;;13.32;43.74
58471;BME280;44258;51.288;12.068;2024-03-17T12:02:50;101244.69;;;13.27;43.65
58471;BME280;44258;51.288;12.068;2024-03-17T12:05:17;101239.88;;;13.33;43.06
58471;BME280;44258;51.288;12.068;2024-03-17T12:07:43;101229.81;;;13.18;42.49
58471;BME280;44258;51.288;12.068;2024-03-17T12:10:11;101227.38;;;13.31;43.54
58471;BME280;44258;51.288;12.068;2024-03-17T12:12:39;101226.50;;;13.30;42.25
58471;BME280;44258;51.288;12.068;2024-03-17T12:15:16;101208.91;;;13.57;40.37
58471;BME280;44258;51.288;12.068;2024-03-17T12:17:43;101199.50;;;13.80;40.10
58471;BME280;44258;51.288;12.068;2024-03-17T12:20:17;101192.75;;;13.55;41.46
58471;BME280;44258;51.288;12.068;2024-03-17T12:22:43;101198.34;;;13.52;41.06
58471;BME280;44258;51.288;12.068;2024-03-17T12:25:16;101204.34;;;13.57;40.50
58471;BME280;44258;51.288;12.068;2024-03-17T12:27:43;101192.34;;;13.63;42.04
58471;BME280;44258;51.288;12.068;2024-03-17T12:30:11;101189.78;;;13.60;41.25
58471;BME280;44258;51.288;12.068;2024-03-17T12:32:37;101184.16;;;13.96;41.27
58471;BME280;44258;51.288;12.068;2024-03-17T12:35:12;101193.75;;;14.18;41.08
58471;BME280;44258;51.288;12.068;2024-03-17T12:37:38;101192.72;;;14.36;40.81
58471;BME280;44258;51.288;12.068;2024-03-17T12:40:18;101195.78;;;14.46;39.89
58471;BME280;44258;51.288;12.068;2024-03-17T12:42:47;101197.41;;;14.64;39.08
58471;BME280;44258;51.288;12.068;2024-03-17T12:45:14;101187.19;;;14.53;39.38
58471;BME280;44258;51.288;12.068;2024-03-17T12:47:48;101185.66;;;14.18;39.63
58471;BME280;44258;51.288;12.068;2024-03-17T12:50:18;101183.94;;;13.51;40.20
58471;BME280;44258;51.288;12.068;2024-03-17T12:52:52;101182.03;;;13.53;39.55
58471;BME280;44258;51.288;12.068;2024-03-17T12:55:21;101179.25;;;13.55;41.29